Cascade, ID (83611)

10:06 AM MDT on August 04, 2015 (GMT -0600)
Castle Mtn Creeks | | Change Station
CLOSE
Current Station
Personal Weather Station
Location: Garden Valley, ID
Elevation: 3850 ft
Nearby Weather Stations
Active Advisory: Fire Weather Warning Active Notice: Record Report

Elev 3850 ft 44.16 °N, 116.01 °W | Updated 2 minutes ago

Partly Cloudy
Partly Cloudy
67.4 °F
Feels Like 67.4 °F
N
1.0
Wind Variable Wind from ENE
Gusts 2.0 mph

Today
High -- | Low -- °F
--% Chance of Precip.
Yesterday
High -- | Low -- °F
Precip. -- in
6:34 AM 9:05 PM
Waning Gibbous, 76% visible
Pressure 29.97 in
Visibility 10.0 miles
Clouds Clear
Dew Point 52 °F
Humidity 59%
Rainfall 0.07 in
Snow Depth Not available.
UV 1.7 out of 12
Pollen 5.50 out of 12
Air Quality Not available.
Flu Activity Not available.
METAR KMYL 041551Z AUTO 23003KT 10SM CLR 18/08 A3009 RMK AO2 SLP148 T01830083

More Conditions Fewer Conditions

Pressure 29.97 in
Visibility 10.0 miles
Clouds Clear
Dew Point 52 °F
Humidity 59%
Rainfall 0.07 in
Snow Depth Not available.
UV 1.7 out of 12
Pollen 5.50 out of 12
Air Quality Not available.
Flu Activity Not available.
METAR KMYL 041551Z AUTO 23003KT 10SM CLR 18/08 A3009 RMK AO2 SLP148 T01830083

More Conditions Fewer Conditions

10-Day Weather Forecast

×

Almanac

Astronomy

Aug. 04, 2015 Rise Set
Actual Time
Civil Twilight
Nautical Twilight
Astronomical Twilight
Moon
Length of Visible Light
Length of Day
Tomorrow will be .
, % of the Moon is Illuminated

Today's Extremes

State Highs State Lows

Community

WunderPhotos

Upload Photos

1,843,912 photos uploaded!

WunderBlogs® & News

Nearby

Air Quality

  Air Quality AQ Index Pollutant
Not available.

Snow Depth

Station Depth Elevation

Earthquake Activity

City Distance Mag. Time & Date
Minimum magnitude displayed is 2.5.

Coastal Water Temperatures

Place Temperature

Stations

Nearby Weather Stations

Station Location Temp. Windchill Dew Point Humidity Wind Precip. Elev Updated Type
                   
Fire Weather Warning
Statement as of 8:57 AM MDT on August 04, 2015

... Red flag warning for lightning is in effect from 9 am to 9 PM
MDT Wednesday for northern Boise blm... western Payette National
Forest... Treasure valley blm... western Twin Falls blm and Vale
blm... which are fire weather zones 400... 401... 420... 424 and
637...

The National Weather Service in Boise has issued a red flag
warning... which is in effect from 9 am to 9 PM MDT Wednesday.

* Thunderstorms... isolated coverage early Wednesday morning then
increasing to scattered by mid-morning.

* Outflow winds... gusts up to 50 mph are possible.

Precautionary/preparedness actions...

A red flag warning means that critical fire weather conditions
are either occurring now... or will shortly.